Station: Ceduna

  Atmospheric Gas Attenuation - ITU Rec 676-11   --------------- db/100km ---------------
Date Time Temp RH % AH g/m3 Dew Point Wind Direction Speed kph Gust kph Barometer mB Rainfall Since 9am 24GHz 47GHz 76GHz 122GHz 134GHz 241GHz
17 02:10 7 77 5.97 3.3 11 13 1019.4 0 14.2 23.8 32.6 85.1 71.6 243.6
17 02:00 6.1 79 5.78 2.7 11 13 1019.5 0 13.9 23.7 32.2 84.1 69.9 237.6
17 01:50 4.9 80 5.4 1.7 9 11 1019.5 0 13.1 23.4 31.2 81.3 66.0 223.5
17 01:40 5.6 79 5.59 2.3 9 9 1019.6 0 13.5 23.5 31.7 82.6 67.9 230.3
17 01:30 5 84 5.71 2.5 7 11 1019.7 0 13.8 23.9 32.4 84.5 70.0 237.7
17 01:20 5.2 85 5.86 2.9 9 11 1019.7 0 14.1 24.1 32.9 85.9 71.8 244.2
17 01:10 5.3 84 5.83 2.8 11 11 1019.7 0 14.0 24.0 32.8 85.5 71.3 242.4
17 01:00 6.2 83 6.11 3.5 9 11 1019.8 0 14.6 24.2 33.5 87.6 74.2 252.8
17 00:50 6.4 85 6.34 4.1 11 13 1019.8 0 15.1 24.5 34.4 89.8 77.1 262.9
17 00:40 6.3 86 6.37 4.1 11 11 1019.9 0 15.1 24.6 34.6 90.3 77.6 264.7
17 00:30 6.1 85 6.21 3.8 13 15 1019.9 0 14.8 24.4 34.0 88.8 75.7 257.8
17 00:20 6.6 86 6.5 4.4 13 15 1019.9 0 15.4 24.8 35.0 91.4 79.1 269.8
17 00:10 6.7 86 6.54 4.5 15 17 1020.1 0 15.5 24.8 35.1 91.7 79.5 271.4
17 00:00 6.9 86 6.62 4.7 15 17 1020.1 0 15.6 24.9 35.3 92.3 80.4 274.5
16 23:50 7.2 85 6.68 4.9 15 17 1020.2 0 15.8 24.9 35.4 92.6 80.9 276.3
16 23:40 7.8 84 6.86 5.3 17 20 1020.3 0 16.1 25.0 35.9 93.9 82.7 282.7
16 23:30 8.1 84 6.99 5.6 19 20 1020.3 0 16.4 25.2 36.3 95.0 84.2 287.8
16 23:20 8.5 84 7.17 6 20 22 1020.4 0 16.8 25.4 36.9 96.5 86.2 294.8
16 23:10 8.6 86 7.39 6.4 20 22 1020.4 0 17.2 25.7 37.7 98.8 89.0 304.9
16 23:00 8.6 88 7.56 6.7 20 22 1020.5 0 17.6 26.0 38.4 100.7 91.4 313.1
16 22:50 8.9 90 7.89 7.4 19 20 1020.6 0 18.3 26.4 39.7 104.0 95.6 327.8
16 22:40 9 91 8.03 7.6 19 20 1020.7 0 18.6 26.7 40.2 105.4 97.4 334.2
16 22:30 8.8 91 7.92 7.4 20 22 1020.8 0 18.4 26.5 39.9 104.5 96.1 329.7
16 22:20 8.9 91 7.97 7.5 20 22 1020.8 0 18.5 26.6 40.0 104.9 96.7 331.7
16 22:10 8.8 93 8.1 7.7 20 22 1020.9 0 18.7 26.8 40.6 106.5 98.6 338.5
16 22:00 8.4 94 7.98 7.5 17 20 1020.9 0 18.5 26.8 40.3 105.7 97.5 334.4
16 21:50 7.9 93 7.64 6.8 13 17 1021 0 17.8 26.3 39.1 102.5 93.3 319.9
16 21:40 7.9 93 7.64 6.8 9 13 1021.2 0 17.8 26.3 39.1 102.5 93.4 320.0
16 21:30 8.2 92 7.71 7 13 15 1021.2 0 17.9 26.4 39.3 102.9 94.0 322.1
16 21:20 8.5 92 7.86 7.3 13 13 1021.2 0 18.2 26.5 39.8 104.2 95.7 328.2
16 21:10 8.7 92 7.96 7.5 11 13 1021.2 0 18.5 26.6 40.1 105.1 96.8 332.2
16 21:00 9 92 8.11 7.8 13 17 1021.2 0 18.8 26.8 40.6 106.4 98.5 338.2
16 20:50 9.5 93 8.47 8.4 15 17 1021.2 0 19.5 27.3 41.8 109.8 102.9 353.6
16 20:40 9.1 91 8.08 7.7 13 15 1021.2 0 18.7 26.7 40.4 105.9 98.0 336.3
16 20:30 9.5 91 8.29 8.1 15 20 1021.2 0 19.1 27.0 41.1 107.7 100.4 344.8
16 20:20 9.8 91 8.45 8.4 17 19 1021.3 0 19.5 27.2 41.6 109.1 102.2 351.3
16 20:10 10.3 91 8.72 8.9 17 19 1021.2 0 20.0 27.5 42.5 111.5 105.3 362.2
16 20:00 10.8 91 9 9.4 17 19 1021.2 0 20.6 27.8 43.4 113.9 108.6 373.5
16 19:50 11 89 8.91 9.3 15 19 1021.2 0 20.4 27.6 42.9 112.6 107.0 368.2
16 19:40 11.1 90 9.07 9.5 15 17 1021.2 0 20.7 27.8 43.5 114.3 109.1 375.5
16 19:30 11.5 89 9.19 9.8 17 19 1021.1 0 21.0 27.9 43.8 115.0 110.2 379.4
16 19:20 12 89 9.49 10.2 15 17 1021.1 0 21.6 28.2 44.8 117.7 113.7 391.6
16 19:10 12.1 90 9.65 10.5 15 17 1021 0 21.9 28.5 45.4 119.4 115.8 399.0
16 19:00 11.8 89 9.37 10 13 17 1020.9 0 21.3 28.1 44.4 116.6 112.3 386.7
16 18:50 11.9 87 9.22 9.8 13 15 1020.9 0 21.0 27.8 43.7 114.8 110.0 378.9
16 18:40 12.2 86 9.28 9.9 13 15 1020.8 0 21.1 27.8 43.8 115.0 110.4 380.3
16 18:30 12.7 85 9.46 10.2 15 17 1020.9 0 21.5 27.9 44.3 116.3 112.2 386.6
16 18:20 13.1 84 9.59 10.5 15 17 1020.8 0 21.7 28.0 44.6 117.1 113.4 390.9
16 18:10 13.6 81 9.53 10.4 15 19 1020.7 0 21.6 27.8 44.1 115.7 111.9 385.5
16 18:00 14.2 77 9.4 10.2 15 19 1020.7 0 21.3 27.4 43.2 113.4 109.2 376.3
16 17:50 14.7 72 9.07 9.7 15 22 1020.7 0 20.5 26.7 41.6 109.1 104.1 358.4
16 17:40 15.6 68 9.04 9.7 9 9 1020.8 0 20.4 26.4 41.0 107.5 102.5 353.0
16 17:30 16.3 66 9.16 9.9 9 11 1020.9 0 20.6 26.4 41.1 107.9 103.2 355.4
16 17:20 16.9 64 9.2 10.1 11 13 1020.9 0 20.7 26.2 41.0 107.5 102.9 354.5
16 17:10 17.4 62 9.19 10.1 11 13 1020.9 0 20.7 26.1 40.7 106.7 102.1 351.8
16 17:00 17.7 61 9.2 10.1 13 15 1020.9 0 20.7 26.0 40.5 106.4 101.8 351.0
16 16:50 18 61 9.37 10.4 11 13 1020.9 0 21.0 26.2 41.1 107.8 103.6 357.3
16 16:40 18.2 61 9.48 10.6 11 15 1020.9 0 21.2 26.3 41.4 108.6 104.8 361.3
16 16:30 18.1 60 9.27 10.2 13 15 1021 0 20.8 26.0 40.6 106.6 102.2 352.4
16 16:20 18.4 60 9.44 10.5 13 17 1021.1 0 21.1 26.2 41.1 108.0 104.0 358.7
16 16:10 18.7 57 9.13 10 13 15 1021.1 0 20.5 25.6 39.8 104.4 99.7 343.5
16 16:00 19 56 9.13 10 13 15 1021 0 20.5 25.5 39.6 104.0 99.3 342.2
16 15:50 19.5 51 8.56 9.1 11 13 1021.1 0 19.2 24.5 37.2 97.6 91.6 315.3
16 15:40 19.4 53 8.84 9.6 11 13 1021 0 19.8 25.0 38.3 100.5 95.2 327.8
16 15:30 19.3 53 8.79 9.5 11 15 1021 0 19.7 24.9 38.2 100.1 94.7 326.1
16 15:20 19.4 56 9.34 10.4 9 13 1021.1 0 20.9 25.7 40.2 105.6 101.4 349.8
16 15:10 19.4 55 9.18 10.1 9 13 1021.1 0 20.5 25.5 39.6 104.0 99.4 342.7
16 15:00 19.1 58 9.51 10.6 11 15 1021.1 0 21.2 26.1 41.1 107.8 104.0 358.7
16 14:50 18.9 60 9.72 11 13 15 1021.2 0 21.7 26.5 42.0 110.2 107.0 369.0
16 14:40 18.6 61 9.71 10.9 11 13 1021.2 0 21.7 26.6 42.1 110.5 107.2 370.0
16 14:30 18.4 59 9.28 10.3 13 15 1021.2 0 20.8 25.9 40.5 106.3 102.0 351.5
16 14:20 18.2 61 9.48 10.6 13 17 1021.3 0 21.2 26.3 41.4 108.7 104.8 361.4
16 14:10 18.1 63 9.73 11 13 15 1021.4 0 21.8 26.7 42.4 111.5 108.2 373.3
16 14:00 17.9 63 9.62 10.8 11 13 1021.5 0 21.5 26.6 42.1 110.6 107.1 369.2
16 13:50 18.7 63 10.09 11.5 11 15 1021.6 0 22.5 27.2 43.6 114.4 112.1 386.9
16 13:40 19.7 55 9.34 10.4 7 15 1021.7 0 20.9 25.7 40.1 105.3 101.1 348.6
16 13:30 19.4 50 8.34 8.7 9 15 1021.9 0 18.8 24.2 36.5 95.6 89.1 306.5
16 13:20 19 49 7.98 8.1 9 13 1022.1 0 18.0 23.8 35.4 92.6 85.2 292.7
16 13:10 19 49 7.98 8.1 9 15 1022.3 0 18.0 23.8 35.4 92.6 85.2 292.8
16 13:00 18.8 55 8.86 9.6 9 15 1022.6 0 19.9 25.2 38.8 101.6 96.3 331.6
16 12:50 18.2 56 8.7 9.3 9 15 1022.7 0 19.6 25.1 38.4 100.8 95.0 327.1
16 12:40 18.1 61 9.42 10.5 7 13 1022.9 0 21.1 26.3 41.3 108.4 104.3 359.7
16 12:30 17 66 9.55 10.6 7 13 1023.2 0 21.4 26.9 42.4 111.3 107.5 370.8
16 12:20 17 71 10.27 11.7 9 13 1023.4 0 23.0 28.0 45.3 119.1 117.1 404.4
16 12:10 16.1 72 9.87 11.1 9 15 1023.5 0 22.2 27.7 44.2 116.1 113.1 390.1
16 12:00 15.9 78 10.56 12.1 9 15 1023.8 0 23.6 28.9 47.2 124.1 122.9 424.2
16 11:50 15 79 10.13 11.4 11 17 1024.1 0 22.8 28.5 45.9 120.7 118.4 408.3
16 11:40 14.7 83 10.45 11.8 13 17 1024.2 0 23.5 29.1 47.5 124.8 123.3 425.5
16 11:30 13.9 85 10.19 11.4 13 17 1024.3 0 23.0 28.9 46.9 123.1 120.9 417.2
16 11:20 13.6 89 10.47 11.8 11 15 1024.5 0 23.6 29.5 48.3 126.8 125.4 432.7
16 11:10 12.6 92 10.18 11.3 11 15 1024.6 0 23.0 29.4 47.6 125.1 122.9 423.8
16 11:00 12.3 94 10.21 11.4 15 20 1024.6 0 23.1 29.5 47.9 126.0 123.8 427.0
16 10:50 11.6 97 10.08 11.1 15 19 1024.7 0 22.9 29.5 47.8 125.6 123.1 424.3
16 10:40 11.2 99 10.04 11 17 19 1024.7 0 22.8 29.6 47.9 125.8 123.1 424.5
16 10:30 10.9 99 9.85 10.7 15 20 1024.8 0 22.4 29.4 47.2 124.0 120.9 416.5
16 10:20 10.3 99 9.48 10.1 19 22 1024.9 0 21.6 28.9 45.9 120.6 116.5 401.1
16 10:10 10.2 99 9.42 10 20 24 1024.8 0 21.5 28.8 45.7 120.1 115.7 398.5
16 10:00 9.8 99 9.19 9.7 20 24 1024.7 0 21.0 28.6 45.0 118.0 113.0 389.0
16 09:50 10 99 9.3 9.9 17 22 1024.7 0 21.3 28.7 45.3 119.0 114.3 393.5
16 09:40 9.6 99 9.07 9.5 19 22 1024.7 0 20.8 28.4 44.5 116.9 111.6 383.9

Last Refresh: 17-Jul-2020 02:28:49

Most of the information presented on this site is sourced from the Bureau of Meteorology.  Copyright in all material sourced from the Bureau of Meteorology resides with the Commonwealth of Australia.